Latest Coastal Weather Observations for Hobart Airport

IDT60701

Issued at 7:12 am EDT Saturday 25 November 2017 (issued every 10 minutes, with the page automatically refreshed every 10 minutes)

About coastal observations | Map of coastal stations | Coastal observations for TAS | Marine services | Other Formats
Station Details ID: 094008 Name: HOBART AIRPORT Lat: -42.83 Lon: 147.50 Height: 4.0 m
Data from the previous 72 hours. | See also: Recent months at Hobart Airport
Date/Time
EDT
Temp
°C
Wind Pressure Rain since
9am
mm
Weather Cloud Vis
km
Sea
Height
m
Swell
Dir  Spd
kts
Gust
kts
hPa Trend Height
m
Period
s
Dir
25/07:00am 15.9 CALM 0 0 1016.2 - 0.4 - Partly cloudy 6 - - - -
25/06:30am 16.1 CALM 0 0 1016.1 - 0.4 Drizzle Mostly clear 3 - - - -
25/06:00am 16.0 CALM 0 0 1015.9 R 0.4 Drizzle Mostly cloudy 4 - - - -
25/05:30am 16.1 CALM 0 0 1015.6 - 0.4 Drizzle Partly cloudy 4 - - - -
25/05:00am 16.3 ESE 4 5 1015.4 - 0.4 - Mostly clear 6 - - - -
25/04:30am 16.4 SE 2 3 1015.5 - 0.4 - Mostly clear 10 - - - -
25/04:00am 16.4 SSW 5 6 1015.3 - 0.4 - Mostly clear 10 - - - -
25/03:30am 16.5 SSE 7 8 1015.2 - 0.4 - Mostly clear 10 - - - -
25/03:00am 16.5 SSE 7 9 1015.3 R 0.4 Haze Mostly cloudy 20 - - - -
25/02:58am 16.5 SSE 7 9 1015.3 - 0.4 - Mostly clear 10 - - - -
25/02:30am 16.6 SSE 7 9 1015.3 - 0.4 - Mostly clear 10 - - - -
25/02:00am 16.6 SSE 7 9 1015.4 - 0.4 - Mostly clear 10 - - - -
25/01:30am 16.6 SSE 6 8 1015.6 - 0.4 - Mostly clear 10 - - - -
25/01:00am 16.6 S 8 11 1015.5 - 0.4 - Mostly clear 10 - - - -
25/12:30am 16.7 SSE 8 11 1015.6 - 0.4 - Mostly clear 10 - - - -
25/12:00am 16.7 SSE 7 9 1015.7 R 0.4 Fine Mostly cloudy 20 - - - -
 
Date/Time
EDT
Temp
°C
Wind Pressure Rain since
9am
mm
Weather Cloud Vis
km
Sea
Height
m
Swell
Dir  Spd
kts
Gust
kts
hPa Trend Height
m
Period
s
Dir
24/11:30pm 16.6 S 8 10 1015.6 - 0.4 - Mostly clear 10 - - - -
24/11:08pm 16.8 S 11 14 1015.4 - 0.4 - Partly cloudy 10 - - - -
24/11:00pm 16.7 S 9 14 1015.5 - 0.4 - Mostly clear 10 - - - -
24/10:30pm 16.8 S 11 16 1015.4 - 0.4 - Mostly clear 10 - - - -
24/10:00pm 17.1 S 9 12 1015.4 - 0.4 - Mostly clear 10 - - - -
24/09:30pm 17.4 SSW 7 8 1015.5 - 0.4 - Mostly clear 10 - - - -
24/09:00pm 17.3 SSW 8 9 1015.1 F 0.4 Recent precip. Mostly cloudy 20 - - - -
24/08:30pm 17.8 SSW 7 9 1014.9 - 0.0 - Mostly clear 10 - - - -
24/08:00pm 18.7 S 8 11 1014.6 - 0.0 - Mostly clear 10 - - - -
24/07:30pm 19.3 S 9 11 1014.3 - 0.0 - Mostly clear 10 - - - -
24/07:00pm 19.5 S 10 13 1014.2 - 0.0 - Mostly clear 10 - - - -
24/06:30pm 19.6 SE 9 11 1014.0 - 0.0 - Mostly clear 10 - - - -
24/06:00pm 19.9 ESE 6 8 1014.3 R 0.0 Distant precip. Mostly cloudy 25 - - - -
24/05:30pm 20.0 SSE 13 16 1012.9 - 0.0 - Mostly clear 10 - - - -
24/05:00pm 20.3 SSE 13 15 1012.9 - 0.0 - Mostly clear 10 - - - -
24/04:30pm 20.8 SSE 14 16 1012.9 - 0.0 - Mostly clear 10 - - - -
24/04:00pm 24.1 SSE 12 16 1012.8 - 0.0 - Mostly clear 10 - - - -
24/03:30pm 22.5 SSE 12 15 1012.7 - 0.0 - Mostly clear 10 - - - -
24/03:00pm 23.1 SSE 15 18 1012.8 R 0.0 Fine Partly cloudy 40 - - - -
24/02:30pm 24.1 SSE 14 16 1013.0 - 0.0 - Mostly clear 10 - - - -
24/02:00pm 23.6 S 13 17 1013.3 - 0.0 - Mostly clear 10 - - - -
24/01:30pm 23.7 SSE 12 17 1013.4 - 0.0 - Mostly clear 10 - - - -
24/01:00pm 22.6 SSE 12 15 1013.1 - 0.0 - Mostly clear 10 - - - -
24/12:30pm 23.4 SSE 10 14 1013.3 - 0.0 - Mostly clear 10 - - - -
24/12:00pm 23.7 SSE 9 12 1013.4 R 0.0 Haze Mostly cloudy 30 - - - -
24/11:30am 23.1 S 9 11 1013.3 - 0.0 - Mostly clear 10 - - - -
24/11:00am 21.1 SSE 9 11 1013.4 - 0.0 - Mostly clear 10 - - - -
24/10:30am 22.8 SSW 4 6 1013.2 - 0.0 - Mostly clear 10 - - - -
24/10:00am 21.8 W 4 7 1013.4 - 0.0 - Mostly clear 10 - - - -
24/09:30am 21.5 NE 5 6 1013.5 - 0.0 - Mostly clear 10 - - - -
24/09:00am 20.3 N 5 8 1013.5 R 0.0 Haze Mostly cloudy 25 - - - -
24/08:30am 19.9 NW 6 9 1013.6 - 0.0 - Mostly clear 10 - - - -
24/08:00am 18.2 NW 7 9 1013.7 - 0.0 - Mostly clear 10 - - - -
24/07:30am 17.0 NW 9 11 1013.4 - 0.0 - Mostly clear 10 - - - -
24/07:00am 15.9 NW 8 10 1012.9 - 0.0 - Mostly clear 10 - - - -
24/06:30am 14.9 WNW 7 9 1012.7 - 0.0 - Mostly clear 10 - - - -
24/06:00am 14.1 NW 7 9 1012.5 R 0.0 Haze Mostly cloudy 24 - - - -
24/05:30am 14.4 WNW 7 8 1012.4 - 0.0 - Mostly clear 10 - - - -
24/05:00am 14.5 WNW 7 8 1012.1 - 0.0 - Partly cloudy 10 - - - -
24/04:45am 14.6 NW 7 8 1012.2 - 0.0 - Partly cloudy 10 - - - -
24/04:30am 14.6 WNW 7 9 1012.0 - 0.0 - Mostly cloudy 10 - - - -
24/04:00am 15.4 NW 7 9 1012.0 - 0.0 - Mostly cloudy 10 - - - -
24/03:30am 15.7 NW 7 9 1012.1 - 0.0 - Mostly cloudy 10 - - - -
24/03:00am 15.6 NW 7 8 1012.3 F 0.0 Smoke Mostly cloudy 24 - - - -
24/02:30am 15.4 NW 6 8 1012.3 - 0.0 - Mostly cloudy 10 - - - -
24/02:13am 15.2 WNW 6 7 1012.6 - 0.0 - Partly cloudy 10 - - - -
24/02:00am 14.7 WNW 1 5 1012.6 - 0.0 - Mostly clear 10 - - - -
24/01:30am 16.1 WSW 3 4 1012.8 - 0.0 - Mostly clear 10 - - - -
24/01:00am 15.1 NNE 4 4 1013.1 - 0.0 - Mostly clear 10 - - - -
24/12:30am 15.5 CALM 0 0 1013.4 - 0.0 - Mostly clear 10 - - - -
24/12:00am 16.9 CALM 0 0 1013.6 F 0.0 Smoke Mostly clear 24 - - - -
 
Date/Time
EDT
Temp
°C
Wind Pressure Rain since
9am
mm
Weather Cloud Vis
km
Sea
Height
m
Swell
Dir  Spd
kts
Gust
kts
hPa Trend Height
m
Period
s
Dir
23/11:30pm 17.2 SE 4 5 1013.7 - 0.0 - - 10 - - - -
23/11:00pm 17.7 S 6 8 1013.6 - 0.0 - - 10 - - - -
23/10:30pm 17.0 SE 5 8 1013.6 - 0.0 - - 10 - - - -
23/10:00pm 17.7 SSW 8 10 1013.6 - 0.0 - - 10 - - - -
23/09:30pm 18.0 S 8 10 1013.7 - 0.0 - - 10 - - - -
23/09:00pm 18.4 S 10 14 1013.4 R 0.0 Smoke Partly cloudy 24 - - - -
23/08:30pm 18.6 S 13 16 1013.1 - 0.0 - - 10 - - - -
23/08:00pm 19.1 S 14 18 1012.8 - 0.0 - Mostly clear 10 - - - -
23/07:30pm 19.2 SSE 15 19 1012.6 - 0.0 - Mostly clear 10 - - - -
23/07:00pm 19.1 SSE 17 21 1012.3 - 0.0 - Mostly clear 10 - - - -
23/06:30pm 20.1 SSE 19 23 1011.9 - 0.0 - Mostly clear 10 - - - -
23/06:00pm 20.9 S 20 28 1011.8 R 0.0 Fine Partly cloudy 35 - - - -
23/05:30pm 21.0 SSE 23 30 1011.1 - 0.0 - Mostly clear 10 - - - -
23/05:00pm 21.5 S 25 30 1010.7 - 0.0 - Mostly clear 10 - - - -
23/04:30pm 24.5 S 17 23 1010.5 - 0.0 - Mostly clear 10 - - - -
23/04:19pm 23.7 SSW 14 25 1010.3 - 0.0 - Mostly clear 10 - - - -
23/04:18pm 23.7 S 13 25 1010.3 - 0.0 - Mostly clear 10 - - - -
23/04:00pm 29.0 NE 9 14 1010.1 - 0.0 - Mostly clear 10 - - - -
23/03:30pm 29.1 ENE 9 13 1010.0 - 0.0 - Mostly clear 10 - - - -
23/03:00pm 29.3 NE 9 12 1010.2 F 0.0 Fine Partly cloudy 40 - - - -
23/02:30pm 29.3 NE 10 14 1010.4 - 0.0 - Mostly clear 10 - - - -
23/02:00pm 28.7 NE 11 15 1010.8 - 0.0 - Partly cloudy 10 - - - -
23/01:30pm 29.2 ENE 8 12 1011.1 - 0.0 - - 10 - - - -
23/01:00pm 28.9 N 9 14 1011.4 - 0.0 - - 10 - - - -
23/12:30pm 28.6 N 8 12 1011.8 - 0.0 - - 10 - - - -
23/12:00pm 27.4 NNE 7 11 1012.2 F 0.0 Fine Mostly cloudy 40 - - - -
23/11:30am 25.9 ENE 7 9 1012.6 - 0.0 - - 10 - - - -
23/11:00am 25.9 NE 8 11 1012.9 - 0.0 - - 10 - - - -
23/10:30am 23.9 NE 7 11 1013.2 - 0.0 - - 10 - - - -
23/10:00am 24.1 ENE 9 13 1013.5 - 0.0 - - 10 - - - -
23/09:30am 23.2 NW 11 15 1013.8 - 0.0 - - 10 - - - -
23/09:00am 21.7 NNW 8 14 1014.1 F 0.0 Fine Partly cloudy 40 - - - -
23/08:30am 20.1 NNW 9 14 1014.4 - 0.0 - Partly cloudy 10 - - - -
23/08:00am 20.3 N 8 11 1014.3 - 0.0 - - 10 - - - -
23/07:30am 19.1 N 12 17 1014.4 - 0.0 - - 10 - - - -
23/07:00am 18.4 N 11 16 1014.4 - 0.0 - - 10 - - - -
23/06:30am 17.3 N 13 19 1014.4 - 0.0 - - 10 - - - -
23/06:00am 17.0 N 11 18 1014.4 F 0.0 Fine Mostly clear 40 - - - -
23/05:30am 16.7 NNW 10 15 1014.4 - 0.0 - - 10 - - - -
23/05:00am 17.0 NNW 8 12 1014.5 - 0.0 - - 10 - - - -
23/04:30am 17.3 N 9 13 1014.6 - 0.0 - - 10 - - - -
23/04:00am 17.5 N 9 15 1014.7 - 0.0 - - 10 - - - -
23/03:30am 17.3 N 7 9 1014.9 - 0.0 - - 10 - - - -
23/03:00am 16.1 N 7 8 1015.3 F 0.0 Fine Mostly clear 35 - - - -
23/02:30am 15.1 N 5 7 1015.4 - 0.0 - - 10 - - - -
23/02:00am 15.8 N 5 7 1015.7 - 0.0 - - 10 - - - -
23/01:30am 16.3 NNE 6 7 1015.9 - 0.0 - - 10 - - - -
23/01:00am 16.3 WSW 4 5 1016.2 - 0.0 - - 10 - - - -
23/12:30am 15.6 N 4 4 1016.3 - 0.0 - - 10 - - - -
23/12:00am 15.2 NNW 5 5 1016.6 F 0.0 Fine Mostly clear 35 - - - -
 
Date/Time
EDT
Temp
°C
Wind Pressure Rain since
9am
mm
Weather Cloud Vis
km
Sea
Height
m
Swell
Dir  Spd
kts
Gust
kts
hPa Trend Height
m
Period
s
Dir
22/11:30pm 17.0 NNE 6 8 1016.6 - 0.0 - - 10 - - - -
22/11:00pm 17.1 N 5 8 1016.8 - 0.0 - - 10 - - - -
22/10:30pm 16.7 NNW 4 5 1016.9 - 0.0 - - 10 - - - -
22/10:00pm 17.4 SSW 3 6 1016.9 - 0.0 - - 10 - - - -
22/09:30pm 17.7 SSW 6 7 1016.8 - 0.0 - - 10 - - - -
22/09:00pm 18.0 SSW 8 10 1016.6 F 0.0 Fine Mostly clear 35 - - - -
22/08:30pm 18.6 S 11 14 1016.5 - 0.0 - - 10 - - - -
22/08:00pm 19.2 S 13 16 1016.3 - 0.0 - - 10 - - - -
22/07:30pm 20.6 S 14 17 1016.2 - 0.0 - - 10 - - - -
22/07:00pm 21.3 SSE 17 21 1016.1 - 0.0 - - 10 - - - -
22/06:30pm 21.4 S 18 23 1015.7 - 0.0 - - 10 - - - -
22/06:00pm 23.3 S 12 17 1015.7 S 0.0 Fine Mostly clear 35 - - - -
22/05:30pm 24.0 SSE 15 19 1015.4 - 0.0 - - 10 - - - -
22/05:00pm 28.9 ESE 9 15 1015.2 - 0.0 - - 10 - - - -
22/04:30pm 29.8 E 12 18 1015.1 - 0.0 - - 10 - - - -
22/04:00pm 29.8 ESE 13 19 1015.0 - 0.0 - - 10 - - - -
22/03:30pm 30.1 ESE 13 19 1015.2 - 0.0 - - 10 - - - -
22/03:00pm 29.8 SE 11 15 1015.5 F 0.0 Fine Mostly clear 40 - - - -
22/02:30pm 29.1 SSE 12 17 1015.9 - 0.0 - - 10 - - - -
22/02:00pm 28.8 SE 13 15 1016.3 - 0.0 - - 10 - - - -
22/01:30pm 27.4 SSE 10 14 1016.7 - 0.0 - - 10 - - - -
22/01:00pm 28.1 SE 12 14 1017.0 - 0.0 - - 10 - - - -
22/12:30pm 27.6 SE 10 12 1017.4 - 0.0 - - 10 - - - -
22/12:00pm 27.2 SE 10 13 1017.7 F 0.0 Fine Mostly clear 40 - - - -
22/11:30am 26.8 SSE 10 12 1017.9 - 0.0 - - 10 - - - -
22/11:00am 26.8 ESE 5 8 1018.2 - 0.0 - - 10 - - - -
22/10:30am 26.9 NNW 9 14 1018.4 - 0.0 - - 10 - - - -
22/10:00am 25.1 NW 10 14 1018.7 - 0.0 - - 10 - - - -
22/09:30am 24.7 NNW 10 15 1019.0 - 0.0 - - 10 - - - -
22/09:00am 22.9 NNW 10 15 1019.3 F 0.0 Fine Mostly clear 40 - - - -
22/08:30am 21.8 NNW 10 16 1019.3 - 0.0 - - 10 - - - -
22/08:00am 20.4 NNW 10 14 1019.3 - 0.0 - - 10 - - - -
22/07:30am 18.8 NNW 7 9 1019.4 - 0.0 - - 10 - - - -

Other Formats:

Comma delimited format used in spreadsheet applications
http://www.bom.gov.au/fwo/IDT60701/IDT60701.94975.axf

JavaScript Object Notation format (JSON) in row-major order
http://www.bom.gov.au/fwo/IDT60701/IDT60701.94975.json